Time;durP1;ratioP1;P1;durP2;ratioP2;P2;SDS_P1;SDS_P2;PMS_P1;PMS_P2;Temp;Humidity;BMP_temperature;BMP_pressure;BME280_temperature;BME280_humidity;BME280_pressure;Samples;Min_cycle;Max_cycle;Signal;HPM_P1;HPM_P2
2023/01/17 00:01:27;;;;;;;2.47;0.90;;;4.30;99.90;;;;;;5032476;28;20212;-53
2023/01/17 00:12:24;;;;;;;2.00;1.07;;;4.20;99.90;;;;;;4997173;28;20203;-53
2023/01/17 00:14:53;;;;;;;1.10;1.00;;;4.30;99.90;;;;;;5002785;28;20209;-44
2023/01/17 00:17:21;;;;;;;1.87;0.90;;;4.30;99.90;;;;;;5008448;28;20524;-53
2023/01/17 01:35:16;;;;;;;1.33;1.20;;;4.00;99.90;;;;;;5024181;28;20202;-52
2023/01/17 01:37:45;;;;;;;1.47;1.07;;;4.10;99.90;;;;;;5024538;28;20386;-46
2023/01/17 01:40:13;;;;;;;2.00;1.20;;;4.00;99.90;;;;;;5024804;28;20315;-54
2023/01/17 01:42:49;;;;;;;1.00;0.93;;;4.00;99.90;;;;;;5023922;28;20227;-49
2023/01/17 01:45:18;;;;;;;1.87;1.33;;;4.00;99.90;;;;;;5020001;28;20210;-53
2023/01/17 01:47:46;;;;;;;1.70;1.30;;;4.00;99.90;;;;;;5023765;28;20200;-44
2023/01/17 01:50:14;;;;;;;1.80;1.23;;;4.00;99.90;;;;;;5024215;28;20899;-53
2023/01/17 01:52:47;;;;;;;1.23;1.13;;;4.00;99.90;;;;;;5023357;28;20278;-43
2023/01/17 01:55:18;;;;;;;2.17;1.20;;;4.00;99.90;;;;;;5029264;28;20310;-50
2023/01/17 01:57:48;;;;;;;1.13;1.03;;;4.00;99.90;;;;;;5029243;28;20183;-46
2023/01/17 02:00:18;;;;;;;1.17;1.03;;;4.00;99.90;;;;;;5016067;28;20279;-54
2023/01/17 02:02:47;;;;;;;2.53;1.23;;;4.00;99.90;;;;;;5044538;28;20211;-47
2023/01/17 02:05:16;;;;;;;1.20;1.10;;;4.00;99.90;;;;;;5025904;28;20207;-49
2023/01/17 02:07:51;;;;;;;1.77;1.33;;;4.00;99.90;;;;;;5029358;28;20192;-42
2023/01/17 02:10:18;;;;;;;1.33;1.23;;;4.00;99.90;;;;;;5023090;28;20580;-52
2023/01/17 02:12:46;;;;;;;1.40;1.30;;;4.00;99.90;;;;;;5023893;28;20741;-46
2023/01/17 02:15:13;;;;;;;1.30;1.20;;;4.00;99.90;;;;;;5016142;28;20216;-51
2023/01/17 02:17:52;;;;;;;2.03;1.60;;;4.00;99.90;;;;;;5032394;28;20845;-46
2023/01/17 02:20:40;;;;;;;1.87;1.47;;;4.00;99.90;;;;;;5025523;28;20573;-50
2023/01/17 02:23:39;;;;;;;1.40;1.30;;;4.00;99.90;;;;;;5024363;28;20228;-52
2023/01/17 02:26:50;;;;;;;1.50;1.40;;;4.10;99.90;;;;;;5024795;28;20206;-54
2023/01/17 02:29:43;;;;;;;1.53;1.43;;;4.00;99.90;;;;;;5014509;28;20310;-53
2023/01/17 02:32:16;;;;;;;3.17;1.70;;;4.00;99.90;;;;;;5028846;28;20200;-52
2023/01/17 02:34:51;;;;;;;2.80;1.70;;;4.00;99.90;;;;;;5023151;28;20198;-48
2023/01/17 02:37:24;;;;;;;2.63;2.03;;;4.00;99.90;;;;;;5023398;28;20203;-55
2023/01/17 02:39:58;;;;;;;2.20;2.00;;;4.00;99.90;;;;;;5027698;28;20242;-46
2023/01/17 02:42:34;;;;;;;2.47;2.27;;;4.00;99.90;;;;;;5031239;28;20753;-52
2023/01/17 02:45:02;;;;;;;2.50;2.30;;;4.10;99.90;;;;;;5024597;28;20208;-46
2023/01/17 02:47:31;;;;;;;2.67;2.47;;;4.10;99.90;;;;;;5021679;28;20826;-46
2023/01/17 02:50:06;;;;;;;2.37;2.17;;;4.10;99.90;;;;;;5027996;28;20223;-47
2023/01/17 02:52:49;;;;;;;2.70;2.50;;;4.10;99.90;;;;;;5019323;28;20199;-50
2023/01/17 02:55:27;;;;;;;3.07;2.77;;;4.10;99.90;;;;;;5029362;28;20278;-52
2023/01/17 02:58:07;;;;;;;2.90;2.70;;;4.10;99.90;;;;;;5026051;28;20200;-50
2023/01/17 03:00:44;;;;;;;3.30;3.00;;;4.10;99.90;;;;;;5017458;28;21999;-45
2023/01/17 03:03:21;;;;;;;3.77;3.47;;;4.10;99.90;;;;;;5031004;28;20720;-54
2023/01/17 03:05:53;;;;;;;5.57;4.00;;;4.10;99.90;;;;;;5023708;28;20191;-45
2023/01/17 03:08:21;;;;;;;4.33;3.37;;;4.20;99.90;;;;;;5023329;28;20223;-52
2023/01/17 03:10:48;;;;;;;4.10;3.80;;;4.10;99.90;;;;;;5023084;28;20204;-49
2023/01/17 03:13:14;;;;;;;4.97;3.77;;;4.10;99.90;;;;;;5022144;28;20199;-50
2023/01/17 03:15:41;;;;;;;4.83;3.73;;;4.10;99.90;;;;;;5011069;28;20207;-43
2023/01/17 03:18:12;;;;;;;3.80;3.50;;;4.20;99.90;;;;;;5029418;28;20207;-52
2023/01/17 03:20:41;;;;;;;4.80;4.30;;;4.10;99.90;;;;;;5028947;28;20930;-45
2023/01/17 03:23:08;;;;;;;4.70;4.17;;;4.10;99.90;;;;;;5025447;28;20212;-51
2023/01/17 03:25:35;;;;;;;5.10;4.63;;;4.20;99.90;;;;;;5027018;28;20283;-47
2023/01/17 03:28:03;;;;;;;4.93;4.53;;;4.20;99.90;;;;;;5024827;28;20576;-43
2023/01/17 03:30:30;;;;;;;4.83;4.40;;;4.20;99.90;;;;;;5030257;28;20195;-48
2023/01/17 03:32:57;;;;;;;5.60;5.00;;;4.20;99.90;;;;;;5019985;28;20204;-46
2023/01/17 03:35:24;;;;;;;6.37;5.23;;;4.20;99.90;;;;;;5025195;28;20207;-54
2023/01/17 03:37:53;;;;;;;5.57;5.07;;;4.20;99.90;;;;;;5033841;28;20204;-50
2023/01/17 03:40:20;;;;;;;5.53;5.03;;;4.20;99.90;;;;;;5020718;28;20305;-53
2023/01/17 03:42:47;;;;;;;5.77;5.10;;;4.20;99.90;;;;;;5022609;28;20223;-47
2023/01/17 03:45:15;;;;;;;8.53;5.70;;;4.20;99.90;;;;;;5022164;28;20210;-52
2023/01/17 03:47:42;;;;;;;7.43;6.00;;;4.30;99.90;;;;;;5011637;28;20206;-48
2023/01/17 03:50:10;;;;;;;7.20;6.50;;;4.30;99.90;;;;;;5024928;28;20282;-51
2023/01/17 03:52:37;;;;;;;8.53;6.67;;;4.20;99.90;;;;;;5020352;28;20192;-46
2023/01/17 03:55:06;;;;;;;9.00;7.20;;;4.30;99.90;;;;;;5021447;28;20222;-44
2023/01/17 03:57:34;;;;;;;7.63;6.43;;;4.30;99.90;;;;;;5020174;28;20250;-46
2023/01/17 04:00:00;;;;;;;9.87;6.87;;;4.30;99.90;;;;;;5033214;28;20254;-43
2023/01/17 04:02:27;;;;;;;8.07;7.27;;;4.30;99.90;;;;;;5015368;28;20299;-48
2023/01/17 04:04:54;;;;;;;6.67;6.07;;;4.30;99.90;;;;;;5034395;28;20204;-43
2023/01/17 04:07:21;;;;;;;7.97;7.17;;;4.30;99.90;;;;;;5027183;28;20231;-55
2023/01/17 04:09:48;;;;;;;9.53;7.73;;;4.40;99.90;;;;;;5029168;28;20227;-45
2023/01/17 04:12:17;;;;;;;7.30;6.17;;;4.30;99.90;;;;;;5039263;28;20195;-51
2023/01/17 04:14:43;;;;;;;7.83;6.40;;;4.30;99.90;;;;;;5034819;28;20200;-46
2023/01/17 04:17:11;;;;;;;6.83;6.00;;;4.30;99.90;;;;;;5020480;28;20195;-52
2023/01/17 04:19:38;;;;;;;7.70;6.93;;;4.30;99.90;;;;;;5021298;28;20303;-43
2023/01/17 04:22:05;;;;;;;7.53;6.03;;;4.40;99.90;;;;;;5025012;28;20629;-52
2023/01/17 04:24:32;;;;;;;7.10;6.40;;;4.40;99.90;;;;;;5030607;28;20221;-46
2023/01/17 04:26:59;;;;;;;7.37;6.13;;;4.40;99.90;;;;;;5029976;28;20573;-46
2023/01/17 04:29:27;;;;;;;7.03;5.63;;;4.30;99.90;;;;;;5023161;28;20895;-49
2023/01/17 04:31:54;;;;;;;6.93;5.97;;;4.30;99.90;;;;;;5026743;28;20204;-47
2023/01/17 04:34:21;;;;;;;6.23;5.10;;;4.30;99.90;;;;;;5016550;28;20203;-54
2023/01/17 04:36:48;;;;;;;5.83;5.20;;;4.30;99.90;;;;;;5035144;28;20207;-49
2023/01/17 04:39:15;;;;;;;4.97;4.43;;;4.20;99.90;;;;;;5023204;28;20234;-55
2023/01/17 04:41:42;;;;;;;5.07;4.57;;;4.20;99.90;;;;;;5032243;28;20215;-48
2023/01/17 04:44:10;;;;;;;3.63;3.33;;;4.10;99.90;;;;;;5028300;28;20284;-53
2023/01/17 04:46:38;;;;;;;3.40;3.10;;;4.10;99.90;;;;;;5024205;28;20196;-46
2023/01/17 04:49:05;;;;;;;3.27;2.97;;;4.00;99.90;;;;;;5023736;28;20297;-46
2023/01/17 04:51:32;;;;;;;2.60;2.40;;;4.00;99.90;;;;;;5030914;28;20196;-42
2023/01/17 04:53:59;;;;;;;2.70;1.87;;;3.90;99.90;;;;;;5037236;28;20196;-47
2023/01/17 04:56:26;;;;;;;1.20;1.10;;;3.80;99.90;;;;;;5029313;28;20669;-53
2023/01/17 04:58:53;;;;;;;1.40;1.30;;;3.70;99.90;;;;;;5034995;28;20219;-46
2023/01/17 05:01:20;;;;;;;0.80;0.80;;;3.60;99.90;;;;;;5025748;28;20532;-54
2023/01/17 05:03:48;;;;;;;1.10;1.00;;;3.60;99.90;;;;;;5031217;28;20219;-48
2023/01/17 05:06:15;;;;;;;1.10;1.00;;;3.50;99.90;;;;;;5018567;28;20662;-51
2023/01/17 05:08:42;;;;;;;1.23;1.13;;;3.50;99.90;;;;;;5035860;28;20210;-46
2023/01/17 05:11:09;;;;;;;1.83;1.33;;;3.50;99.90;;;;;;5031826;28;20227;-53
2023/01/17 05:13:36;;;;;;;3.00;1.47;;;3.40;99.90;;;;;;5027279;28;20245;-43
2023/01/17 05:16:03;;;;;;;1.57;1.37;;;3.40;99.90;;;;;;5034999;28;20214;-46
2023/01/17 05:18:31;;;;;;;13.63;3.70;;;3.40;99.90;;;;;;5029629;28;21003;-47
2023/01/17 05:21:02;;;;;;;2.40;1.80;;;3.50;99.90;;;;;;5019326;28;20249;-45
2023/01/17 05:23:32;;;;;;;26.17;6.17;;;3.40;99.90;;;;;;5030433;28;20212;-45
2023/01/17 05:25:59;;;;;;;15.67;4.47;;;3.50;99.90;;;;;;5027169;28;20204;-45
2023/01/17 05:28:26;;;;;;;20.13;5.77;;;3.40;99.90;;;;;;5025255;28;20215;-44
2023/01/17 05:30:53;;;;;;;4.13;2.90;;;3.50;99.90;;;;;;5041297;28;20195;-45
2023/01/17 05:33:20;;;;;;;4.43;3.03;;;3.50;99.90;;;;;;5023334;28;20243;-45
2023/01/17 05:35:47;;;;;;;7.83;3.40;;;3.40;99.90;;;;;;5039389;28;20275;-46
2023/01/17 05:38:15;;;;;;;11.30;5.27;;;3.50;99.90;;;;;;5019248;28;20854;-51
2023/01/17 05:40:42;;;;;;;5.07;3.23;;;3.50;99.90;;;;;;5039942;28;20200;-48
2023/01/17 05:43:09;;;;;;;10.37;5.03;;;3.50;99.90;;;;;;5028305;28;20232;-53
2023/01/17 05:45:37;;;;;;;12.43;5.03;;;3.50;99.90;;;;;;5030367;28;20972;-47
2023/01/17 05:48:05;;;;;;;5.87;3.47;;;3.60;99.90;;;;;;5031639;28;20212;-54
2023/01/17 05:50:34;;;;;;;5.07;3.83;;;3.60;99.90;;;;;;5028774;28;20195;-45
2023/01/17 05:53:04;;;;;;;6.00;3.60;;;3.60;99.90;;;;;;5021629;28;20204;-55
2023/01/17 05:55:33;;;;;;;4.07;3.50;;;3.70;99.90;;;;;;5028440;28;20287;-45
2023/01/17 05:58:02;;;;;;;6.13;3.67;;;3.70;99.90;;;;;;5032427;28;20773;-52
2023/01/17 06:00:30;;;;;;;3.10;2.80;;;3.70;99.90;;;;;;5034368;28;20192;-43
2023/01/17 06:02:59;;;;;;;2.97;2.67;;;3.70;99.90;;;;;;5029512;28;20224;-51
2023/01/17 06:05:28;;;;;;;3.57;2.00;;;3.70;99.90;;;;;;5027900;28;20261;-50
2023/01/17 06:07:55;;;;;;;4.97;1.57;;;3.70;99.90;;;;;;5019334;28;20231;-54
2023/01/17 06:10:23;;;;;;;1.53;1.40;;;3.70;99.90;;;;;;5026022;28;20207;-48
2023/01/17 06:13:00;;;;;;;1.80;1.27;;;3.70;99.90;;;;;;5020422;28;20918;-44
2023/01/17 06:15:28;;;;;;;0.43;0.40;;;3.70;99.90;;;;;;5031208;28;20195;-52
2023/01/17 06:17:55;;;;;;;2.50;0.67;;;3.60;99.90;;;;;;5036835;28;20430;-45
2023/01/17 06:20:22;;;;;;;0.83;0.37;;;3.60;99.90;;;;;;5039365;28;20230;-43
2023/01/17 06:22:49;;;;;;;0.73;0.40;;;3.60;99.90;;;;;;5031446;28;20952;-44
2023/01/17 06:25:16;;;;;;;1.33;0.33;;;3.60;99.90;;;;;;5017657;28;20207;-50
2023/01/17 06:27:43;;;;;;;1.23;0.50;;;3.60;99.90;;;;;;5022867;28;20200;-55
2023/01/17 06:30:12;;;;;;;1.70;0.50;;;3.60;99.90;;;;;;5036182;28;20243;-46
2023/01/17 06:32:39;;;;;;;0.27;0.23;;;3.50;99.90;;;;;;5028157;28;20196;-52
2023/01/17 06:35:06;;;;;;;1.13;0.30;;;3.50;99.90;;;;;;5033515;28;20191;-47
2023/01/17 06:37:33;;;;;;;0.30;0.20;;;3.50;99.90;;;;;;5034940;28;20206;-50
2023/01/17 06:40:00;;;;;;;0.87;0.40;;;3.40;99.90;;;;;;5020408;28;20253;-47
2023/01/17 06:42:27;;;;;;;2.30;0.50;;;3.40;99.90;;;;;;5023598;28;20250;-52
2023/01/17 06:44:54;;;;;;;3.03;0.40;;;3.30;99.90;;;;;;5023995;28;20225;-44
2023/01/17 06:47:22;;;;;;;4.93;0.60;;;3.30;99.90;;;;;;5034522;28;20218;-45
2023/01/17 06:49:49;;;;;;;4.83;0.60;;;3.30;99.90;;;;;;5026477;28;20937;-46
2023/01/17 06:52:16;;;;;;;2.03;0.40;;;3.30;99.90;;;;;;5025943;28;20227;-54
2023/01/17 06:54:42;;;;;;;0.30;0.30;;;3.20;99.90;;;;;;5017014;28;20273;-46
2023/01/17 06:57:09;;;;;;;5.30;1.00;;;3.20;99.90;;;;;;5028786;28;20202;-48
2023/01/17 06:59:36;;;;;;;3.17;0.60;;;3.20;99.90;;;;;;5023940;28;20254;-50
2023/01/17 07:02:02;;;;;;;1.03;0.53;;;3.20;99.90;;;;;;5037190;28;20662;-45
2023/01/17 07:04:31;;;;;;;1.60;0.90;;;3.20;99.90;;;;;;5024526;28;20303;-52
2023/01/17 07:06:58;;;;;;;2.07;0.57;;;3.20;99.90;;;;;;5041660;28;20537;-50
2023/01/17 07:09:25;;;;;;;1.63;0.43;;;3.10;99.90;;;;;;5019997;28;20728;-52
2023/01/17 07:11:58;;;;;;;2.57;0.63;;;3.20;99.90;;;;;;5015856;28;20269;-48
2023/01/17 07:14:25;;;;;;;2.70;0.70;;;3.10;99.90;;;;;;5018278;28;20202;-51
2023/01/17 07:16:52;;;;;;;1.97;0.77;;;3.20;99.90;;;;;;5025061;28;20211;-46
2023/01/17 07:19:18;;;;;;;3.00;0.60;;;3.20;99.90;;;;;;5031797;28;20237;-52
2023/01/17 07:21:49;;;;;;;3.60;0.70;;;3.20;99.90;;;;;;5030729;28;20262;-44
2023/01/17 07:24:16;;;;;;;4.93;0.87;;;3.20;99.90;;;;;;5034204;28;20216;-53
2023/01/17 07:26:43;;;;;;;5.93;0.90;;;3.20;99.90;;;;;;5009981;28;21816;-50
2023/01/17 07:29:10;;;;;;;1.77;0.90;;;3.20;99.90;;;;;;5036457;28;20215;-55
2023/01/17 07:31:39;;;;;;;7.10;1.00;;;3.20;99.90;;;;;;5021955;28;20203;-44
2023/01/17 07:34:06;;;;;;;1.50;0.80;;;3.20;99.90;;;;;;5023619;28;20567;-48
2023/01/17 07:36:34;;;;;;;3.83;0.70;;;3.30;99.90;;;;;;5019594;28;20212;-52
2023/01/17 07:39:03;;;;;;;3.13;0.90;;;3.30;99.90;;;;;;5023756;28;20718;-52
2023/01/17 07:41:31;;;;;;;8.40;1.20;;;3.30;99.90;;;;;;5005946;28;20203;-53
2023/01/17 07:44:04;;;;;;;3.73;0.70;;;3.30;99.90;;;;;;5031159;28;20221;-46
2023/01/17 07:46:31;;;;;;;2.30;0.97;;;3.30;99.90;;;;;;5023981;28;20206;-48
2023/01/17 07:48:58;;;;;;;6.43;0.67;;;3.30;99.90;;;;;;5024822;28;20723;-56
2023/01/17 07:51:25;;;;;;;5.40;0.70;;;3.30;99.90;;;;;;5036347;28;20914;-49
2023/01/17 07:53:52;;;;;;;6.07;1.23;;;3.30;99.90;;;;;;5033842;28;20202;-53
2023/01/17 07:56:21;;;;;;;3.30;0.97;;;3.40;99.90;;;;;;5037113;28;20203;-50
2023/01/17 07:58:47;;;;;;;11.03;0.90;;;3.40;99.90;;;;;;5003790;28;20227;-50
2023/01/17 08:01:16;;;;;;;1.47;0.53;;;3.40;99.90;;;;;;5032213;28;20207;-50
2023/01/17 08:03:42;;;;;;;1.53;0.53;;;3.50;99.90;;;;;;5026760;28;20222;-45
2023/01/17 08:06:18;;;;;;;6.50;0.93;;;3.40;99.90;;;;;;5030799;28;20208;-52
2023/01/17 08:08:45;;;;;;;4.37;0.80;;;3.50;99.90;;;;;;5033625;28;20215;-47
2023/01/17 08:11:12;;;;;;;4.47;0.90;;;3.50;99.90;;;;;;5030729;28;20289;-50
2023/01/17 08:13:40;;;;;;;8.10;0.90;;;3.50;99.90;;;;;;5020204;28;20304;-50
2023/01/17 08:16:09;;;;;;;2.10;1.43;;;3.50;99.90;;;;;;5030603;28;20203;-48
2023/01/17 08:18:35;;;;;;;1.67;0.47;;;3.40;99.90;;;;;;5019956;28;20231;-46
2023/01/17 08:21:02;;;;;;;4.07;0.97;;;3.40;99.90;;;;;;5031842;28;20200;-50
2023/01/17 08:23:30;;;;;;;8.70;0.87;;;3.30;99.90;;;;;;5032927;28;20204;-49
2023/01/17 08:25:59;;;;;;;3.10;0.70;;;3.30;99.90;;;;;;5031305;28;20234;-49
2023/01/17 08:28:26;;;;;;;5.13;0.87;;;3.30;99.90;;;;;;5013617;28;20224;-53
2023/01/17 08:30:54;;;;;;;4.43;0.60;;;3.20;99.90;;;;;;5032512;28;20249;-45
2023/01/17 08:33:21;;;;;;;4.50;0.90;;;3.20;99.90;;;;;;5026243;28;20223;-52
2023/01/17 08:35:52;;;;;;;4.50;0.47;;;3.20;99.90;;;;;;5022419;28;20210;-52
2023/01/17 08:38:19;;;;;;;2.90;0.90;;;3.20;99.90;;;;;;5030923;28;20642;-52
2023/01/17 08:40:45;;;;;;;2.00;0.37;;;3.20;99.90;;;;;;5038902;28;20185;-50
2023/01/17 08:43:12;;;;;;;3.10;0.63;;;3.10;99.90;;;;;;5032051;28;20212;-53
2023/01/17 08:45:42;;;;;;;6.60;0.63;;;3.10;99.90;;;;;;5016173;28;20205;-45
2023/01/17 08:48:10;;;;;;;1.53;0.60;;;3.10;99.90;;;;;;5032157;28;20207;-52
2023/01/17 08:50:37;;;;;;;4.53;0.70;;;3.10;99.90;;;;;;5024584;28;20985;-50
2023/01/17 08:53:04;;;;;;;4.50;0.80;;;3.10;99.90;;;;;;5037340;28;20211;-52
2023/01/17 08:55:58;;;;;;;4.23;0.70;;;3.10;99.90;;;;;;5030996;28;20227;-48
2023/01/17 08:58:26;;;;;;;7.77;0.87;;;3.10;99.90;;;;;;5034115;28;20661;-51
2023/01/17 09:00:53;;;;;;;5.13;0.90;;;3.10;99.90;;;;;;5019194;28;20216;-46
2023/01/17 09:03:21;;;;;;;3.13;0.53;;;3.20;99.90;;;;;;5027913;28;20220;-53
2023/01/17 09:05:48;;;;;;;5.23;1.13;;;3.20;99.90;;;;;;5023716;28;20261;-49
2023/01/17 09:08:14;;;;;;;5.07;0.77;;;3.20;99.90;;;;;;5022443;28;20211;-51
2023/01/17 09:10:41;;;;;;;4.00;0.70;;;3.20;99.90;;;;;;5024223;28;20999;-50
2023/01/17 09:13:08;;;;;;;5.40;0.90;;;3.20;99.90;;;;;;5040774;28;20200;-50
2023/01/17 09:15:34;;;;;;;2.20;0.60;;;3.20;99.90;;;;;;5019059;28;20354;-51
2023/01/17 09:18:01;;;;;;;5.73;1.00;;;3.30;99.90;;;;;;5034313;28;20678;-44
2023/01/17 09:20:29;;;;;;;3.90;1.00;;;3.30;99.90;;;;;;5031814;28;20215;-48
2023/01/17 09:22:57;;;;;;;3.67;1.33;;;3.40;99.90;;;;;;5034167;28;20203;-46
2023/01/17 09:25:24;;;;;;;4.93;1.00;;;3.40;99.90;;;;;;5034169;28;20240;-50
2023/01/17 09:27:50;;;;;;;2.90;0.73;;;3.40;99.90;;;;;;5033612;28;20192;-51
2023/01/17 09:30:17;;;;;;;3.40;0.93;;;3.40;99.90;;;;;;5019684;28;20752;-47
2023/01/17 09:32:51;;;;;;;1.40;0.87;;;3.40;99.90;;;;;;5031898;28;20693;-55
2023/01/17 09:35:18;;;;;;;4.57;0.67;;;3.40;99.90;;;;;;5035862;28;20195;-48
2023/01/17 09:37:48;;;;;;;1.97;0.87;;;3.40;99.90;;;;;;5026231;28;20232;-53
2023/01/17 09:40:19;;;;;;;2.17;0.80;;;3.50;99.90;;;;;;5027635;28;20232;-48
2023/01/17 09:42:50;;;;;;;5.73;1.47;;;3.50;99.90;;;;;;5023106;28;20214;-49
2023/01/17 09:45:19;;;;;;;3.97;0.80;;;3.50;99.90;;;;;;5040535;28;20222;-47
2023/01/17 09:47:48;;;;;;;7.30;1.00;;;3.50;99.90;;;;;;5009785;28;20203;-55
2023/01/17 09:50:25;;;;;;;0.83;0.60;;;3.50;99.90;;;;;;5035883;28;20215;-49
2023/01/17 09:53:00;;;;;;;1.03;0.50;;;3.40;99.90;;;;;;5027336;28;20207;-45
2023/01/17 09:55:29;;;;;;;2.37;0.63;;;3.30;99.90;;;;;;5029263;28;20206;-49
2023/01/17 09:58:00;;;;;;;2.17;0.63;;;3.30;99.90;;;;;;5029315;28;20305;-47
2023/01/17 10:00:42;;;;;;;3.90;0.70;;;3.30;99.90;;;;;;5040624;28;20223;-46
2023/01/17 10:03:23;;;;;;;1.97;0.90;;;3.40;99.90;;;;;;5018645;28;20267;-46
2023/01/17 10:06:01;;;;;;;1.23;0.60;;;3.50;99.90;;;;;;5025042;28;20203;-45
2023/01/17 10:08:44;;;;;;;3.03;0.70;;;3.50;99.90;;;;;;5031800;28;20297;-45
2023/01/17 10:11:29;;;;;;;0.77;0.40;;;3.40;99.90;;;;;;5025893;28;20200;-46
2023/01/17 10:14:11;;;;;;;2.87;0.50;;;3.30;99.90;;;;;;5023153;28;20274;-46
2023/01/17 10:16:45;;;;;;;3.23;0.60;;;3.30;99.90;;;;;;5031615;28;20214;-53
2023/01/17 10:19:26;;;;;;;3.67;0.70;;;3.20;99.90;;;;;;5021711;28;20215;-53
2023/01/17 10:22:06;;;;;;;1.73;0.70;;;3.30;99.90;;;;;;5028147;28;20206;-47
2023/01/17 10:24:59;;;;;;;2.83;0.70;;;3.20;99.90;;;;;;5021904;28;20216;-54
2023/01/17 10:27:32;;;;;;;1.53;0.40;;;3.30;99.90;;;;;;5026490;28;20199;-47
2023/01/17 10:30:01;;;;;;;3.00;0.70;;;3.30;99.90;;;;;;5038590;28;20303;-47
2023/01/17 10:32:32;;;;;;;4.07;0.80;;;3.40;99.90;;;;;;5031573;28;20689;-48
2023/01/17 10:35:05;;;;;;;2.47;0.63;;;3.50;99.90;;;;;;5014989;28;20208;-44
2023/01/17 10:37:39;;;;;;;4.40;0.60;;;3.60;99.90;;;;;;5025865;28;20750;-55
2023/01/17 10:40:17;;;;;;;0.70;0.30;;;3.60;99.90;;;;;;5032270;28;20273;-44
2023/01/17 10:42:57;;;;;;;4.90;0.93;;;3.70;99.90;;;;;;5065909;27;20632;-46
2023/01/17 10:45:27;;;;;;;0.73;0.50;;;3.80;99.90;;;;;;5059319;28;20213;-45
2023/01/17 10:48:02;;;;;;;6.57;1.30;;;3.80;99.90;;;;;;5054899;28;20206;-45
2023/01/17 10:50:32;;;;;;;0.73;0.50;;;3.90;99.90;;;;;;5035310;28;20759;-52
2023/01/17 10:53:09;;;;;;;5.63;0.87;;;4.00;99.90;;;;;;5037101;28;20214;-44
2023/01/17 10:55:42;;;;;;;5.30;1.00;;;4.10;99.90;;;;;;5051375;28;20276;-49
2023/01/17 10:58:11;;;;;;;5.20;0.57;;;4.10;99.90;;;;;;5046724;28;20225;-47
2023/01/17 11:00:44;;;;;;;3.50;1.10;;;4.10;99.90;;;;;;5053965;28;20202;-51
2023/01/17 11:03:12;;;;;;;2.43;0.43;;;4.10;99.90;;;;;;5054027;28;20191;-44
2023/01/17 11:05:41;;;;;;;5.50;1.00;;;4.20;99.90;;;;;;5040215;28;20202;-51
2023/01/17 11:08:10;;;;;;;1.80;0.47;;;4.20;99.90;;;;;;5048476;28;20244;-45
2023/01/17 11:10:41;;;;;;;4.23;0.60;;;4.20;99.90;;;;;;5050421;28;20217;-51
2023/01/17 11:13:23;;;;;;;1.53;0.63;;;4.20;99.90;;;;;;5048164;28;20278;-47
2023/01/17 11:15:56;;;;;;;2.77;0.47;;;4.30;99.90;;;;;;5044937;28;20210;-51
2023/01/17 11:18:27;;;;;;;2.67;0.43;;;4.30;99.90;;;;;;5045573;28;20214;-49
2023/01/17 11:21:05;;;;;;;4.07;0.43;;;4.10;99.90;;;;;;5032631;28;20202;-45
2023/01/17 11:23:33;;;;;;;1.33;0.40;;;3.90;99.90;;;;;;5043619;28;20820;-50
2023/01/17 11:26:03;;;;;;;1.80;0.40;;;3.70;99.90;;;;;;5041260;28;20218;-53
2023/01/17 11:28:34;;;;;;;3.47;0.47;;;3.60;99.90;;;;;;5049216;28;20226;-52
2023/01/17 11:31:06;;;;;;;4.33;0.60;;;3.40;99.90;;;;;;5048913;28;20195;-51
2023/01/17 11:33:44;;;;;;;2.53;0.50;;;3.20;99.90;;;;;;5053118;28;20274;-50
2023/01/17 11:36:18;;;;;;;1.43;0.50;;;3.10;99.90;;;;;;5039750;28;20217;-46
2023/01/17 11:38:58;;;;;;;0.77;0.17;;;3.10;99.90;;;;;;5045813;28;20226;-52
2023/01/17 11:41:26;;;;;;;2.80;0.37;;;3.20;99.90;;;;;;5051543;28;20227;-50
2023/01/17 11:43:57;;;;;;;0.30;0.23;;;3.30;99.90;;;;;;5040794;28;20194;-46
2023/01/17 11:46:24;;;;;;;4.73;0.40;;;3.30;99.90;;;;;;5047025;28;20195;-51
2023/01/17 11:48:53;;;;;;;2.37;0.60;;;3.40;99.90;;;;;;5050527;28;20773;-50
2023/01/17 11:51:26;;;;;;;1.17;0.30;;;3.60;99.90;;;;;;5030563;28;20214;-52
2023/01/17 11:54:01;;;;;;;1.57;0.43;;;3.70;99.90;;;;;;5031722;28;20199;-50
2023/01/17 11:56:32;;;;;;;3.87;0.80;;;3.80;99.90;;;;;;5030230;28;20210;-52
2023/01/17 11:59:18;;;;;;;5.00;0.47;;;4.00;99.90;;;;;;5033191;28;20281;-52
2023/01/17 12:01:57;;;;;;;2.73;0.80;;;4.10;99.90;;;;;;5035607;28;20294;-54
2023/01/17 12:04:27;;;;;;;6.57;0.70;;;4.20;99.90;;;;;;5035003;28;20207;-47
2023/01/17 12:07:03;;;;;;;1.90;0.50;;;4.20;99.90;;;;;;5024667;28;20200;-53
2023/01/17 12:09:39;;;;;;;3.57;0.63;;;4.30;99.90;;;;;;5035792;28;20227;-54
2023/01/17 12:15:14;;;;;;;3.10;0.30;;;4.20;99.90;;;;;;5022772;28;20207;-46
2023/01/17 12:17:56;;;;;;;1.17;0.43;;;4.20;99.90;;;;;;5039801;28;20937;-48
2023/01/17 12:20:30;;;;;;;1.87;0.77;;;4.30;99.90;;;;;;5030674;28;20216;-49
2023/01/17 12:23:22;;;;;;;2.87;0.50;;;4.30;99.90;;;;;;5009738;28;20227;-47
2023/01/17 12:26:01;;;;;;;1.33;0.47;;;4.30;99.90;;;;;;5028712;28;20203;-49
2023/01/17 12:28:53;;;;;;;1.80;0.80;;;4.20;99.90;;;;;;5038964;28;20229;-49
2023/01/17 12:31:26;;;;;;;1.60;0.40;;;4.20;99.90;;;;;;5036859;28;20602;-47
2023/01/17 12:33:57;;;;;;;2.57;0.60;;;4.20;99.90;;;;;;5035274;28;20187;-51
2023/01/17 12:36:35;;;;;;;4.57;0.67;;;4.20;99.90;;;;;;5040160;28;20218;-51
2023/01/17 12:39:06;;;;;;;3.03;0.70;;;4.30;99.90;;;;;;5020043;28;21058;-44
2023/01/17 12:41:37;;;;;;;4.03;0.40;;;4.30;99.90;;;;;;5023438;28;20220;-49
2023/01/17 12:44:04;;;;;;;0.73;0.30;;;4.40;99.90;;;;;;5037965;28;20191;-45
2023/01/17 12:46:37;;;;;;;2.77;0.47;;;4.40;99.90;;;;;;5031330;28;20569;-51
2023/01/17 12:49:19;;;;;;;1.97;0.60;;;4.50;99.90;;;;;;5038087;28;20273;-47
2023/01/17 12:51:49;;;;;;;4.60;0.67;;;4.60;99.90;;;;;;5038194;28;20195;-50
2023/01/17 12:54:20;;;;;;;2.53;0.40;;;4.60;99.90;;;;;;5025404;28;20235;-46
2023/01/17 12:56:52;;;;;;;5.37;0.40;;;4.60;99.90;;;;;;5026128;28;20204;-49
2023/01/17 12:59:25;;;;;;;1.63;0.40;;;4.50;99.90;;;;;;5036267;28;20216;-47
2023/01/17 13:01:57;;;;;;;2.23;0.53;;;4.50;99.90;;;;;;5027182;28;20215;-52
2023/01/17 13:04:27;;;;;;;1.63;0.57;;;4.40;99.90;;;;;;5037922;28;20650;-47
2023/01/17 13:07:05;;;;;;;3.30;0.30;;;4.40;99.90;;;;;;5030085;28;20948;-49
2023/01/17 13:09:39;;;;;;;1.87;0.50;;;4.40;99.90;;;;;;5022833;28;20220;-48
2023/01/17 13:12:09;;;;;;;2.40;0.50;;;4.40;99.90;;;;;;5025965;28;20200;-46
2023/01/17 13:14:35;;;;;;;0.73;0.30;;;4.50;99.90;;;;;;5038754;28;20211;-53
2023/01/17 13:17:12;;;;;;;1.03;0.40;;;4.40;99.90;;;;;;5028140;28;20200;-51
2023/01/17 13:19:48;;;;;;;2.10;0.20;;;4.40;99.90;;;;;;5032624;28;20242;-50
2023/01/17 13:22:18;;;;;;;1.50;0.30;;;4.30;99.90;;;;;;5038141;28;20210;-45
2023/01/17 13:24:54;;;;;;;0.53;0.30;;;4.20;99.90;;;;;;5025749;28;20203;-51
2023/01/17 13:27:38;;;;;;;1.50;0.30;;;4.20;99.90;;;;;;5032840;28;20279;-48
2023/01/17 13:30:20;;;;;;;0.70;0.17;;;4.30;99.90;;;;;;5033870;28;20252;-49
2023/01/17 13:33:02;;;;;;;2.27;0.30;;;4.30;99.90;;;;;;5025468;28;20256;-51
2023/01/17 13:35:41;;;;;;;1.87;0.47;;;4.30;99.90;;;;;;5039537;28;20214;-45
2023/01/17 13:38:27;;;;;;;4.80;0.50;;;4.40;99.90;;;;;;5036087;28;20195;-50
2023/01/17 13:40:57;;;;;;;2.27;0.47;;;4.40;99.90;;;;;;5017587;28;20215;-48
2023/01/17 13:43:26;;;;;;;5.30;1.37;;;4.50;99.90;;;;;;5035478;28;20685;-46
2023/01/17 13:45:55;;;;;;;1.57;0.30;;;4.60;99.90;;;;;;5028097;28;20211;-49
2023/01/17 13:48:31;;;;;;;2.00;0.57;;;4.70;99.90;;;;;;5027763;28;20648;-50
2023/01/17 13:51:01;;;;;;;2.20;0.80;;;4.80;99.90;;;;;;5031509;28;20643;-48
2023/01/17 13:53:46;;;;;;;2.33;0.80;;;4.80;99.90;;;;;;5033722;28;20203;-53
2023/01/17 13:56:15;;;;;;;1.47;0.30;;;4.80;99.90;;;;;;5028384;28;20248;-51
2023/01/17 13:59:03;;;;;;;1.77;0.60;;;4.80;99.90;;;;;;5018313;28;20237;-50
2023/01/17 14:01:54;;;;;;;2.23;0.80;;;4.70;99.90;;;;;;5034087;28;21062;-50
2023/01/17 14:04:23;;;;;;;1.57;0.30;;;4.70;99.90;;;;;;5030377;28;20691;-53
2023/01/17 14:06:58;;;;;;;3.17;0.70;;;4.60;99.90;;;;;;5027579;28;20203;-47
2023/01/17 14:09:38;;;;;;;3.47;0.60;;;4.60;99.90;;;;;;5034205;28;20218;-55
2023/01/17 14:12:24;;;;;;;1.63;0.70;;;4.60;99.90;;;;;;5014784;28;20295;-49
2023/01/17 14:14:54;;;;;;;2.03;0.60;;;4.50;99.90;;;;;;5030671;28;20281;-51
2023/01/17 14:17:45;;;;;;;6.40;1.13;;;4.40;99.90;;;;;;5030943;28;20199;-49
2023/01/17 14:20:50;;;;;;;3.80;0.97;;;4.40;99.90;;;;;;5018427;28;20227;-55
2023/01/17 14:23:25;;;;;;;2.13;0.70;;;4.50;99.90;;;;;;5023442;28;20219;-53
2023/01/17 14:25:53;;;;;;;3.17;1.10;;;4.40;99.90;;;;;;5032580;28;20207;-48
2023/01/17 14:28:23;;;;;;;3.20;0.50;;;4.30;99.90;;;;;;5017685;28;20603;-53
2023/01/17 14:30:54;;;;;;;7.53;1.87;;;4.30;99.90;;;;;;5038659;28;20290;-44
2023/01/17 14:33:27;;;;;;;1.40;0.97;;;4.30;99.90;;;;;;5029889;28;20210;-53
2023/01/17 14:35:58;;;;;;;6.30;1.13;;;4.30;99.90;;;;;;5032267;28;20203;-45
2023/01/17 14:38:26;;;;;;;1.07;0.60;;;4.30;99.90;;;;;;5028157;28;20302;-52
2023/01/17 14:40:56;;;;;;;1.57;1.03;;;4.30;99.90;;;;;;5041143;28;20218;-46
2023/01/17 14:43:24;;;;;;;1.70;1.07;;;4.40;99.90;;;;;;5024144;28;20290;-51
2023/01/17 14:45:58;;;;;;;2.60;1.00;;;4.30;99.90;;;;;;5036579;28;20642;-54